Time;durP1;ratioP1;P1;durP2;ratioP2;P2;SDS_P1;SDS_P2;PMS_P1;PMS_P2;Temp;Humidity;BMP_temperature;BMP_pressure;BME280_temperature;BME280_humidity;BME280_pressure;Samples;Min_cycle;Max_cycle;Signal;HPM_P1;HPM_P2
2021/01/05 00:00:51;;;;;;;17.23;10.70;;;3.00;80.80;;;;;;5035087;28;20188;-74
2021/01/05 00:03:17;;;;;;;18.70;11.27;;;3.00;81.00;;;;;;5015102;28;20423;-74
2021/01/05 00:05:43;;;;;;;18.90;10.47;;;3.00;81.00;;;;;;5033286;28;20185;-74
2021/01/05 00:08:09;;;;;;;17.73;11.77;;;2.90;81.00;;;;;;5015992;28;20567;-74
2021/01/05 00:10:41;;;;;;;18.10;9.77;;;2.90;81.20;;;;;;5033583;28;20405;-74
2021/01/05 00:13:06;;;;;;;18.27;10.23;;;2.90;81.40;;;;;;5032911;28;20174;-73
2021/01/05 00:15:32;;;;;;;18.17;11.00;;;2.90;81.50;;;;;;5032140;28;20471;-70
2021/01/05 00:17:58;;;;;;;19.90;10.50;;;2.90;81.70;;;;;;5031262;28;20281;-75
2021/01/05 00:20:31;;;;;;;19.20;11.40;;;2.90;81.90;;;;;;5014156;28;20167;-73
2021/01/05 00:22:57;;;;;;;16.87;9.87;;;2.90;82.10;;;;;;5031862;28;20166;-72
2021/01/05 00:25:24;;;;;;;21.20;11.30;;;2.90;81.90;;;;;;5047180;28;20427;-73
2021/01/05 00:27:50;;;;;;;19.30;11.00;;;2.90;82.00;;;;;;5031496;28;20190;-72
2021/01/05 00:30:21;;;;;;;18.93;12.10;;;2.90;82.10;;;;;;5032314;28;20767;-72
2021/01/05 00:32:49;;;;;;;18.87;11.90;;;2.80;82.10;;;;;;5030848;28;20421;-72
2021/01/05 00:35:19;;;;;;;17.97;11.40;;;2.90;82.30;;;;;;5031154;28;20802;-73
2021/01/05 00:37:47;;;;;;;22.63;11.03;;;2.90;82.40;;;;;;5031203;28;20488;-72
2021/01/05 00:40:14;;;;;;;16.77;10.80;;;2.90;82.30;;;;;;5029995;28;20435;-72
2021/01/05 00:42:41;;;;;;;21.13;10.20;;;2.80;82.10;;;;;;5029505;28;20463;-73
2021/01/05 00:45:10;;;;;;;18.40;11.00;;;2.80;82.20;;;;;;5031429;28;20499;-73
2021/01/05 00:47:36;;;;;;;17.33;11.27;;;2.80;82.30;;;;;;5029386;28;20817;-73
2021/01/05 00:50:04;;;;;;;18.47;10.80;;;2.80;82.30;;;;;;5029966;28;20417;-73
2021/01/05 00:52:30;;;;;;;14.53;9.73;;;2.80;82.30;;;;;;5029088;28;20455;-72
2021/01/05 00:54:55;;;;;;;21.60;11.30;;;2.80;82.30;;;;;;5029214;28;20476;-72
2021/01/05 00:57:22;;;;;;;17.77;10.87;;;2.80;82.50;;;;;;5046195;28;20269;-73
2021/01/05 00:59:50;;;;;;;18.60;9.97;;;2.80;82.50;;;;;;5029422;28;20888;-72
2021/01/05 01:02:16;;;;;;;16.17;9.33;;;2.80;82.50;;;;;;5046052;28;20421;-71
2021/01/05 01:04:45;;;;;;;17.70;10.57;;;2.80;82.60;;;;;;5029372;28;20833;-73
2021/01/05 01:07:11;;;;;;;18.43;11.60;;;2.80;82.60;;;;;;5029081;28;20433;-71
2021/01/05 01:09:37;;;;;;;17.43;9.67;;;2.80;82.70;;;;;;5028927;28;20266;-72
2021/01/05 01:12:12;;;;;;;20.07;11.17;;;2.80;82.70;;;;;;5029030;28;20179;-72
2021/01/05 01:14:41;;;;;;;18.93;10.43;;;2.80;82.60;;;;;;5031378;28;20471;-71
2021/01/05 01:17:07;;;;;;;18.63;11.53;;;2.80;82.60;;;;;;5029906;28;20987;-73
2021/01/05 01:19:33;;;;;;;22.73;11.73;;;2.80;82.60;;;;;;5028718;28;20790;-72
2021/01/05 01:21:59;;;;;;;17.77;10.47;;;2.80;82.70;;;;;;5045865;28;20758;-71
2021/01/05 01:24:25;;;;;;;20.60;12.27;;;2.80;82.60;;;;;;5028491;28;20405;-72
2021/01/05 01:26:53;;;;;;;22.20;11.47;;;2.80;82.40;;;;;;5028888;28;20544;-71
2021/01/05 01:29:22;;;;;;;22.60;12.93;;;2.90;82.50;;;;;;5028081;28;20436;-72
2021/01/05 01:31:49;;;;;;;22.30;11.60;;;2.80;82.30;;;;;;5028839;28;20422;-72
2021/01/05 01:34:17;;;;;;;20.77;12.10;;;2.90;82.30;;;;;;5045662;28;20969;-71
2021/01/05 01:36:52;;;;;;;20.20;11.60;;;2.90;82.20;;;;;;5035858;28;20464;-70
2021/01/05 01:39:18;;;;;;;18.93;10.80;;;2.90;82.20;;;;;;5028941;28;20431;-73
2021/01/05 01:41:43;;;;;;;22.33;11.07;;;2.90;82.10;;;;;;5029120;28;20417;-73
2021/01/05 01:44:19;;;;;;;25.50;12.10;;;2.80;81.80;;;;;;5014291;28;20201;-72
2021/01/05 01:46:45;;;;;;;20.23;12.30;;;2.90;81.80;;;;;;5033154;28;20196;-71
2021/01/05 01:49:11;;;;;;;19.50;10.87;;;2.90;82.00;;;;;;5032838;28;20416;-73
2021/01/05 01:51:39;;;;;;;20.70;11.00;;;2.90;81.80;;;;;;5032741;28;20478;-73
2021/01/05 01:54:38;;;;;;;23.27;11.70;;;2.90;81.50;;;;;;5033755;28;20405;-71
2021/01/05 01:57:23;;;;;;;22.33;12.20;;;2.90;81.70;;;;;;5050136;28;20432;-72
2021/01/05 02:00:04;;;;;;;19.40;9.90;;;2.90;81.70;;;;;;5033614;28;20401;-73
2021/01/05 02:03:07;;;;;;;17.33;10.30;;;2.90;81.60;;;;;;5048989;28;20515;-73
2021/01/05 02:05:47;;;;;;;23.97;11.40;;;2.90;81.40;;;;;;5016043;28;20417;-71
2021/01/05 02:08:25;;;;;;;21.57;11.97;;;2.90;81.50;;;;;;5029303;28;20433;-73
2021/01/05 02:10:53;;;;;;;18.53;11.10;;;2.90;81.70;;;;;;5013143;28;20522;-72
2021/01/05 02:13:42;;;;;;;21.77;11.47;;;2.90;81.60;;;;;;5012989;28;20472;-71
2021/01/05 02:17:07;;;;;;;19.90;11.23;;;2.90;81.80;;;;;;5030603;28;20452;-72
2021/01/05 02:19:44;;;;;;;22.90;11.40;;;2.90;81.80;;;;;;4954382;29;20763;-71
2021/01/05 02:22:21;;;;;;;20.13;11.50;;;2.90;81.90;;;;;;4952751;29;20404;-73
2021/01/05 02:25:01;;;;;;;22.47;13.43;;;2.90;82.10;;;;;;5009059;28;20494;-70
2021/01/05 02:27:29;;;;;;;19.40;12.30;;;2.90;82.10;;;;;;5031498;28;20880;-71
2021/01/05 02:30:00;;;;;;;20.27;11.57;;;2.90;82.30;;;;;;5015748;28;20409;-71
2021/01/05 02:32:49;;;;;;;21.93;12.60;;;2.90;82.30;;;;;;5031942;28;20412;-72
2021/01/05 02:35:56;;;;;;;22.77;12.73;;;2.80;82.40;;;;;;5033026;28;20457;-72
2021/01/05 02:39:01;;;;;;;19.73;10.80;;;2.80;82.40;;;;;;5034181;28;20490;-73
2021/01/05 02:41:55;;;;;;;23.97;12.40;;;2.80;82.50;;;;;;5034955;28;20866;-72
2021/01/05 02:45:08;;;;;;;17.57;10.30;;;2.90;82.70;;;;;;5034838;28;20898;-71
2021/01/05 02:48:05;;;;;;;22.73;11.17;;;2.80;82.50;;;;;;5025997;28;20993;-70
2021/01/05 02:51:11;;;;;;;16.93;10.80;;;2.80;82.50;;;;;;5024946;28;20400;-71
2021/01/05 02:54:34;;;;;;;19.00;12.27;;;2.80;82.50;;;;;;5017019;28;20956;-72
2021/01/05 02:57:35;;;;;;;22.20;14.70;;;2.80;82.40;;;;;;5033440;28;20972;-71
2021/01/05 03:01:11;;;;;;;20.40;11.27;;;2.90;82.50;;;;;;4976829;28;20415;-72
2021/01/05 03:03:56;;;;;;;19.47;11.07;;;2.90;82.50;;;;;;5011838;28;20405;-72
2021/01/05 03:06:54;;;;;;;23.33;12.70;;;2.80;82.30;;;;;;5032096;28;21057;-71
2021/01/05 03:10:01;;;;;;;21.40;11.53;;;2.80;82.40;;;;;;5032940;28;20929;-72
2021/01/05 03:13:05;;;;;;;25.57;12.67;;;2.80;82.20;;;;;;5032521;28;20907;-71
2021/01/05 03:15:59;;;;;;;20.60;12.43;;;2.80;82.20;;;;;;5032712;28;20567;-72
2021/01/05 03:18:49;;;;;;;18.80;11.10;;;2.80;82.30;;;;;;5040849;28;20496;-72
2021/01/05 03:21:38;;;;;;;22.07;12.20;;;2.80;82.40;;;;;;5033250;28;20551;-73
2021/01/05 03:24:24;;;;;;;21.23;11.83;;;2.80;82.30;;;;;;5032091;28;20540;-71
2021/01/05 03:27:11;;;;;;;24.33;12.97;;;2.80;82.10;;;;;;5028083;28;20444;-73
2021/01/05 03:30:10;;;;;;;26.93;13.10;;;2.80;82.30;;;;;;5032244;28;20423;-73
2021/01/05 03:32:55;;;;;;;20.33;10.53;;;2.90;82.30;;;;;;5031351;28;20458;-71
2021/01/05 03:35:39;;;;;;;23.27;12.60;;;2.90;82.20;;;;;;5032081;28;20814;-71
2021/01/05 03:38:23;;;;;;;24.40;12.27;;;2.90;82.30;;;;;;5031449;28;20519;-72
2021/01/05 03:41:07;;;;;;;19.77;10.20;;;2.90;82.30;;;;;;5032114;28;20465;-72
2021/01/05 03:43:51;;;;;;;23.50;12.10;;;2.90;82.10;;;;;;5032061;28;20456;-71
2021/01/05 03:46:36;;;;;;;22.20;12.03;;;2.90;81.90;;;;;;5031799;28;20520;-72
2021/01/05 03:49:20;;;;;;;21.13;11.40;;;2.90;81.80;;;;;;5032751;28;20427;-72
2021/01/05 03:52:05;;;;;;;21.63;11.40;;;2.80;81.70;;;;;;5032203;28;20424;-71
2021/01/05 03:54:48;;;;;;;19.73;11.30;;;2.80;81.90;;;;;;5012250;28;20819;-72
2021/01/05 03:57:33;;;;;;;23.43;12.37;;;2.80;82.00;;;;;;5012305;28;20422;-73
2021/01/05 04:00:26;;;;;;;27.43;13.23;;;2.80;82.00;;;;;;5009788;28;20437;-73
2021/01/05 04:02:56;;;;;;;22.27;11.67;;;2.80;81.90;;;;;;5028753;28;20417;-72
2021/01/05 04:05:23;;;;;;;20.87;10.97;;;2.80;81.80;;;;;;5012569;28;20402;-70
2021/01/05 04:07:49;;;;;;;27.50;13.53;;;2.80;81.70;;;;;;5022228;28;20441;-72
2021/01/05 04:10:16;;;;;;;31.50;12.80;;;2.80;81.80;;;;;;5039612;28;20416;-71
2021/01/05 04:12:41;;;;;;;23.13;12.07;;;2.80;81.80;;;;;;5046833;28;20941;-71
2021/01/05 04:15:13;;;;;;;20.63;11.87;;;2.80;81.70;;;;;;5031912;28;20491;-71
2021/01/05 04:17:38;;;;;;;22.57;12.63;;;2.80;81.50;;;;;;5032303;28;20274;-71
2021/01/05 04:20:05;;;;;;;23.77;10.87;;;2.80;81.60;;;;;;5030758;28;20473;-71
2021/01/05 04:22:31;;;;;;;23.03;12.07;;;2.80;81.40;;;;;;5031746;28;20269;-72
2021/01/05 04:24:56;;;;;;;22.00;11.47;;;2.80;81.50;;;;;;5032863;28;20444;-72
2021/01/05 04:27:22;;;;;;;25.07;13.40;;;2.80;81.40;;;;;;5036005;28;20581;-71
2021/01/05 04:29:47;;;;;;;19.50;11.27;;;2.80;81.50;;;;;;5045392;28;20241;-71
2021/01/05 04:32:13;;;;;;;21.40;10.93;;;2.80;81.40;;;;;;5045388;28;20196;-71
2021/01/05 04:34:38;;;;;;;23.30;12.17;;;2.80;81.50;;;;;;5048156;28;20231;-72
2021/01/05 04:37:04;;;;;;;26.03;12.10;;;2.80;81.50;;;;;;5048596;28;20258;-71
2021/01/05 04:39:30;;;;;;;20.27;12.50;;;2.80;81.40;;;;;;5048556;28;20171;-70
2021/01/05 04:42:31;;;;;;;18.60;10.67;;;2.80;81.30;;;;;;5041967;28;20658;-73
2021/01/05 04:45:11;;;;;;;25.37;12.40;;;2.80;81.30;;;;;;5019779;28;20186;-72
2021/01/05 04:48:12;;;;;;;22.97;11.97;;;2.80;81.30;;;;;;5047578;28;20575;-72
2021/01/05 04:50:50;;;;;;;25.73;11.63;;;2.80;81.30;;;;;;5048279;28;20408;-72
2021/01/05 04:53:31;;;;;;;26.83;12.17;;;2.80;81.30;;;;;;5050054;28;20412;-73
2021/01/05 04:55:59;;;;;;;18.70;11.07;;;2.80;81.50;;;;;;5049774;28;20436;-73
2021/01/05 04:58:31;;;;;;;24.67;12.30;;;2.80;81.40;;;;;;5019101;28;20434;-70
2021/01/05 05:00:59;;;;;;;28.63;13.43;;;2.80;81.10;;;;;;5029933;28;20413;-72
2021/01/05 05:03:33;;;;;;;21.43;10.67;;;2.80;81.20;;;;;;5030508;28;20401;-72
2021/01/05 05:06:18;;;;;;;23.27;12.27;;;2.80;81.30;;;;;;5030996;28;20401;-72
2021/01/05 05:09:00;;;;;;;21.83;11.40;;;2.90;81.40;;;;;;5029623;28;21038;-72
2021/01/05 05:11:42;;;;;;;22.40;12.03;;;2.90;81.40;;;;;;5030853;28;20429;-72
2021/01/05 05:14:30;;;;;;;19.27;11.57;;;2.90;81.40;;;;;;5028697;28;20508;-72
2021/01/05 05:17:02;;;;;;;23.10;11.47;;;2.80;81.40;;;;;;5030147;28;20437;-72
2021/01/05 05:19:55;;;;;;;25.10;13.30;;;2.80;81.40;;;;;;5030131;28;20459;-73
2021/01/05 05:22:44;;;;;;;23.30;11.43;;;2.80;81.40;;;;;;5030495;28;20425;-72
2021/01/05 05:25:36;;;;;;;18.83;12.13;;;2.80;81.40;;;;;;4989347;28;20428;-72
2021/01/05 05:28:15;;;;;;;20.63;10.30;;;2.80;81.50;;;;;;5028995;28;21019;-73
2021/01/05 05:30:43;;;;;;;20.10;12.03;;;2.80;81.20;;;;;;5028843;28;20413;-71
2021/01/05 05:33:25;;;;;;;22.30;13.03;;;2.90;81.40;;;;;;5027746;28;20417;-73
2021/01/05 05:36:26;;;;;;;26.90;13.40;;;2.90;81.40;;;;;;5030971;28;20492;-72
2021/01/05 05:39:37;;;;;;;21.57;12.17;;;2.90;81.60;;;;;;5030129;28;20583;-73
2021/01/05 05:42:36;;;;;;;26.77;12.70;;;2.90;81.50;;;;;;5030473;28;20421;-73
2021/01/05 05:45:11;;;;;;;31.00;12.10;;;3.00;81.40;;;;;;5030506;28;20417;-72
2021/01/05 05:47:40;;;;;;;22.50;11.57;;;3.00;81.30;;;;;;5030197;28;20436;-71
2021/01/05 05:50:15;;;;;;;25.07;12.43;;;3.00;81.20;;;;;;5030205;28;20506;-73
2021/01/05 05:53:00;;;;;;;24.37;13.07;;;3.00;81.20;;;;;;5030365;28;20436;-72
2021/01/05 05:55:49;;;;;;;19.40;11.47;;;3.00;81.10;;;;;;5030085;28;20484;-71
2021/01/05 05:58:25;;;;;;;18.67;10.23;;;3.00;81.00;;;;;;5030614;28;20428;-71
2021/01/05 06:00:54;;;;;;;23.30;11.60;;;3.00;81.00;;;;;;5030837;28;20425;-73
2021/01/05 06:03:23;;;;;;;21.70;11.87;;;3.00;81.20;;;;;;5031103;28;20444;-72
2021/01/05 06:05:48;;;;;;;20.47;11.87;;;3.00;82.20;;;;;;5030183;28;20425;-71
2021/01/05 06:08:16;;;;;;;24.87;12.93;;;3.00;81.40;;;;;;5030527;28;20529;-70
2021/01/05 06:10:42;;;;;;;21.37;10.90;;;3.00;81.40;;;;;;5030621;28;20167;-70
2021/01/05 06:13:09;;;;;;;23.37;11.20;;;3.10;81.20;;;;;;5030790;28;20409;-71
2021/01/05 06:15:35;;;;;;;26.93;12.03;;;3.10;81.20;;;;;;5030379;28;20841;-72
2021/01/05 06:18:06;;;;;;;26.37;13.10;;;3.10;81.20;;;;;;5028760;28;20747;-71
2021/01/05 06:20:31;;;;;;;21.33;12.47;;;3.10;81.10;;;;;;5029923;28;20736;-71
2021/01/05 06:22:57;;;;;;;21.90;11.80;;;3.10;80.90;;;;;;5030411;28;20467;-71
2021/01/05 06:25:23;;;;;;;28.43;13.60;;;3.10;80.90;;;;;;5030960;28;20169;-71
2021/01/05 06:27:49;;;;;;;22.50;12.10;;;3.00;80.80;;;;;;5028690;28;20459;-72
2021/01/05 06:30:15;;;;;;;19.80;11.07;;;3.00;81.00;;;;;;5030459;28;20173;-73
2021/01/05 06:32:41;;;;;;;22.93;11.80;;;3.00;80.90;;;;;;5032725;28;20374;-72
2021/01/05 06:35:09;;;;;;;21.07;11.03;;;3.00;80.70;;;;;;5032847;28;20988;-71
2021/01/05 06:37:34;;;;;;;23.60;12.10;;;3.00;80.90;;;;;;5032389;28;20440;-72
2021/01/05 06:40:00;;;;;;;22.30;13.30;;;3.00;80.90;;;;;;5033176;28;20409;-72
2021/01/05 06:42:26;;;;;;;24.47;13.33;;;3.00;81.10;;;;;;5032643;28;20170;-73
2021/01/05 06:44:51;;;;;;;27.77;12.87;;;3.00;80.90;;;;;;5033174;28;20174;-73
2021/01/05 06:50:08;;;;;;;21.40;11.23;;;3.00;81.00;;;;;;4974636;28;20203;-85
2021/01/05 06:52:34;;;;;;;26.17;12.23;;;3.10;81.20;;;;;;4986257;28;20419;-88
2021/01/05 06:54:59;;;;;;;24.70;10.27;;;3.10;81.10;;;;;;4982515;28;20832;-86
2021/01/05 06:57:25;;;;;;;21.50;11.03;;;3.10;80.70;;;;;;4984860;28;20177;-87
2021/01/05 06:59:50;;;;;;;21.90;11.97;;;3.10;80.90;;;;;;4976217;28;20173;-88
2021/01/05 07:02:16;;;;;;;23.00;11.30;;;3.10;80.90;;;;;;5028504;22;20248;-73
2021/01/05 07:04:42;;;;;;;16.13;9.50;;;3.10;80.90;;;;;;5051374;28;20545;-72
2021/01/05 07:07:09;;;;;;;31.77;12.33;;;3.10;80.80;;;;;;5060924;28;20193;-72
2021/01/05 07:09:34;;;;;;;24.20;11.57;;;3.10;81.00;;;;;;5058090;28;20419;-71
2021/01/05 07:12:00;;;;;;;19.70;11.40;;;3.10;81.10;;;;;;5052645;28;20408;-72
2021/01/05 07:14:27;;;;;;;27.53;11.80;;;3.10;81.00;;;;;;5057349;28;20193;-72
2021/01/05 07:16:53;;;;;;;20.63;11.70;;;3.10;80.80;;;;;;5067344;28;20290;-72
2021/01/05 07:19:19;;;;;;;26.47;13.07;;;3.10;80.80;;;;;;5072898;28;20413;-73
2021/01/05 07:21:45;;;;;;;20.13;10.90;;;3.10;80.70;;;;;;5072248;28;20423;-72
2021/01/05 07:24:12;;;;;;;19.97;11.17;;;3.20;80.70;;;;;;5079136;28;20418;-72
2021/01/05 07:26:41;;;;;;;26.83;12.63;;;3.20;80.70;;;;;;5069987;28;22244;-72
2021/01/05 07:29:07;;;;;;;21.60;12.63;;;3.20;80.60;;;;;;5052540;28;20773;-73
2021/01/05 07:31:33;;;;;;;23.17;13.57;;;3.20;80.70;;;;;;5060795;28;20435;-72
2021/01/05 07:33:58;;;;;;;21.30;11.00;;;3.20;80.60;;;;;;5071399;28;20422;-72
2021/01/05 07:36:29;;;;;;;20.13;11.57;;;3.20;80.50;;;;;;5078927;28;20229;-74
2021/01/05 07:38:55;;;;;;;19.83;11.50;;;3.20;80.50;;;;;;5076967;28;20169;-72
2021/01/05 07:41:28;;;;;;;21.40;11.97;;;3.20;80.50;;;;;;5065122;28;20404;-72
2021/01/05 07:43:57;;;;;;;24.57;11.30;;;3.20;80.50;;;;;;5079359;28;20404;-73
2021/01/05 07:46:23;;;;;;;24.97;13.20;;;3.20;80.50;;;;;;5060713;28;20440;-73
2021/01/05 07:48:51;;;;;;;23.30;12.70;;;3.20;80.50;;;;;;5054779;28;20173;-73
2021/01/05 07:51:18;;;;;;;25.40;12.27;;;3.20;80.30;;;;;;5076613;28;20180;-73
2021/01/05 07:53:47;;;;;;;21.00;11.00;;;3.20;80.10;;;;;;5072145;28;20445;-73
2021/01/05 07:56:13;;;;;;;25.17;12.40;;;3.20;80.10;;;;;;5072439;28;20431;-72
2021/01/05 07:58:39;;;;;;;25.43;12.37;;;3.20;80.10;;;;;;5072840;28;20224;-73
2021/01/05 08:01:04;;;;;;;25.00;12.23;;;3.20;80.10;;;;;;5061467;28;20162;-71
2021/01/05 08:03:30;;;;;;;24.97;12.80;;;3.30;80.20;;;;;;5072277;28;20161;-73
2021/01/05 08:05:55;;;;;;;20.60;11.10;;;3.30;80.00;;;;;;5071080;28;20592;-73
2021/01/05 08:08:22;;;;;;;44.57;19.00;;;3.30;79.90;;;;;;5071963;28;20649;-72
2021/01/05 08:10:47;;;;;;;26.23;11.93;;;3.30;79.80;;;;;;5053144;28;20231;-71
2021/01/05 08:13:13;;;;;;;33.00;15.50;;;3.30;79.80;;;;;;5052484;28;20909;-72
2021/01/05 08:15:39;;;;;;;32.77;14.17;;;3.30;79.80;;;;;;5051996;28;20199;-72
2021/01/05 08:18:10;;;;;;;60.30;23.40;;;3.30;79.70;;;;;;5059200;28;20664;-72
2021/01/05 08:20:36;;;;;;;110.97;37.90;;;3.30;79.90;;;;;;5083570;28;20173;-73
2021/01/05 08:23:03;;;;;;;27.90;13.30;;;3.40;79.90;;;;;;5074887;28;20772;-72
2021/01/05 08:25:50;;;;;;;23.20;11.77;;;3.40;80.00;;;;;;5058611;28;20528;-73
2021/01/05 08:28:16;;;;;;;18.47;9.90;;;3.40;79.60;;;;;;5056432;28;20513;-72
2021/01/05 08:30:41;;;;;;;25.03;11.63;;;3.40;79.10;;;;;;5061353;28;21053;-72
2021/01/05 08:33:08;;;;;;;106.43;36.20;;;3.40;79.10;;;;;;5052182;28;20177;-72
2021/01/05 08:35:35;;;;;;;51.97;22.87;;;3.40;79.20;;;;;;5053530;28;20194;-73
2021/01/05 08:38:01;;;;;;;33.13;13.93;;;3.40;79.00;;;;;;5048485;28;20448;-73
2021/01/05 08:40:30;;;;;;;27.80;11.60;;;3.40;78.80;;;;;;5051398;28;20416;-72
2021/01/05 08:42:58;;;;;;;24.33;10.87;;;3.50;79.00;;;;;;5053336;28;20462;-72
2021/01/05 08:45:23;;;;;;;21.53;10.20;;;3.50;78.70;;;;;;5050366;28;20436;-73
2021/01/05 08:47:49;;;;;;;18.07;10.17;;;3.50;78.40;;;;;;5051329;28;20557;-71
2021/01/05 08:50:21;;;;;;;19.30;10.00;;;3.50;78.40;;;;;;5051045;28;20173;-73
2021/01/05 08:52:47;;;;;;;21.03;10.13;;;3.50;78.40;;;;;;5050740;28;20198;-72
2021/01/05 08:55:13;;;;;;;28.90;13.77;;;3.50;78.40;;;;;;5063538;28;20490;-72
2021/01/05 08:57:39;;;;;;;42.80;16.60;;;3.50;78.50;;;;;;5051308;28;20189;-73
2021/01/05 09:00:06;;;;;;;29.23;13.10;;;3.50;78.50;;;;;;5051641;28;20780;-73
2021/01/05 09:02:32;;;;;;;25.30;12.80;;;3.50;78.50;;;;;;5050642;28;20185;-72
2021/01/05 09:04:57;;;;;;;25.60;11.07;;;3.50;78.40;;;;;;5069311;28;20447;-73
2021/01/05 09:07:23;;;;;;;18.33;10.53;;;3.50;78.30;;;;;;5073045;28;20243;-73
2021/01/05 09:09:48;;;;;;;23.57;10.67;;;3.50;78.30;;;;;;5069526;28;20180;-72
2021/01/05 09:12:14;;;;;;;18.37;9.50;;;3.50;78.00;;;;;;5071005;28;20175;-73
2021/01/05 09:14:40;;;;;;;16.77;9.67;;;3.50;78.10;;;;;;5071544;28;20195;-72
2021/01/05 09:17:06;;;;;;;25.67;13.50;;;3.50;77.90;;;;;;5072642;28;20431;-73
2021/01/05 09:19:32;;;;;;;22.37;10.80;;;3.50;78.00;;;;;;5069685;28;20435;-71
2021/01/05 09:21:57;;;;;;;27.83;10.83;;;3.60;78.20;;;;;;5056420;28;20165;-73
2021/01/05 09:24:23;;;;;;;17.13;9.77;;;3.60;77.80;;;;;;5053258;28;20244;-72
2021/01/05 09:26:56;;;;;;;15.77;9.73;;;3.60;77.80;;;;;;5051699;28;20295;-71
2021/01/05 09:29:23;;;;;;;18.30;9.20;;;3.60;77.50;;;;;;5049690;28;20913;-73
2021/01/05 09:31:50;;;;;;;24.60;11.40;;;3.60;77.70;;;;;;5065861;28;20435;-73
2021/01/05 09:34:18;;;;;;;20.63;11.90;;;3.60;77.60;;;;;;5052691;28;20455;-73
2021/01/05 09:36:44;;;;;;;19.90;10.10;;;3.60;77.70;;;;;;5070789;28;20958;-72
2021/01/05 09:39:13;;;;;;;22.40;10.90;;;3.60;78.10;;;;;;5073799;28;20399;-73
2021/01/05 09:41:42;;;;;;;28.43;12.93;;;3.60;78.20;;;;;;5052249;28;20542;-73
2021/01/05 09:44:12;;;;;;;21.00;11.80;;;3.60;78.30;;;;;;5051335;28;20499;-73
2021/01/05 09:46:39;;;;;;;21.87;12.33;;;3.60;78.30;;;;;;5052227;28;20548;-73
2021/01/05 09:49:07;;;;;;;24.10;12.10;;;3.60;78.20;;;;;;5071197;28;20411;-73
2021/01/05 09:51:32;;;;;;;29.23;11.90;;;3.70;78.20;;;;;;5052820;28;20550;-73
2021/01/05 09:53:58;;;;;;;24.70;11.43;;;3.70;77.90;;;;;;5048328;28;20939;-73
2021/01/05 09:56:24;;;;;;;27.83;13.33;;;3.70;77.80;;;;;;5086168;28;20283;-73
2021/01/05 09:58:50;;;;;;;24.10;12.17;;;3.70;77.50;;;;;;5068082;28;20419;-73
2021/01/05 10:01:24;;;;;;;26.50;13.00;;;3.70;77.60;;;;;;5068799;28;20419;-72
2021/01/05 10:03:49;;;;;;;24.70;12.97;;;3.70;77.50;;;;;;5069994;28;20165;-73
2021/01/05 10:06:15;;;;;;;23.70;10.73;;;3.70;77.60;;;;;;5073053;28;20452;-74
2021/01/05 10:08:40;;;;;;;28.47;12.70;;;3.70;77.70;;;;;;5072734;28;20181;-73
2021/01/05 10:11:06;;;;;;;26.90;11.57;;;3.70;77.60;;;;;;5076329;28;20218;-72
2021/01/05 10:13:37;;;;;;;26.10;13.97;;;3.80;78.10;;;;;;5075769;28;20685;-73
2021/01/05 10:16:04;;;;;;;25.53;12.60;;;3.80;78.10;;;;;;5081238;28;20197;-73
2021/01/05 10:18:32;;;;;;;25.43;13.43;;;3.80;78.20;;;;;;5078305;28;20407;-73
2021/01/05 10:20:57;;;;;;;52.10;22.53;;;3.80;78.10;;;;;;5076392;28;20422;-73
2021/01/05 10:23:23;;;;;;;83.13;32.00;;;3.90;78.10;;;;;;5075751;28;20303;-74
2021/01/05 10:25:49;;;;;;;40.27;15.83;;;3.90;78.00;;;;;;5056880;28;20405;-73
2021/01/05 10:28:15;;;;;;;71.93;26.57;;;3.90;77.90;;;;;;5078354;28;20438;-75
2021/01/05 10:30:41;;;;;;;66.73;26.10;;;3.90;78.00;;;;;;5077738;28;20367;-73
2021/01/05 10:33:07;;;;;;;43.80;19.37;;;3.90;78.10;;;;;;5076460;28;20180;-73
2021/01/05 10:35:32;;;;;;;56.07;23.67;;;3.90;78.20;;;;;;5073720;28;20496;-73
2021/01/05 10:37:58;;;;;;;74.20;25.80;;;3.90;78.50;;;;;;5075292;28;20433;-73
2021/01/05 10:40:25;;;;;;;46.60;21.87;;;3.90;78.40;;;;;;5068364;28;20638;-73
2021/01/05 10:42:50;;;;;;;42.93;18.13;;;4.00;78.40;;;;;;5064293;28;20222;-73
2021/01/05 10:45:21;;;;;;;37.20;16.10;;;4.00;78.00;;;;;;5090530;28;20775;-74
2021/01/05 10:47:57;;;;;;;41.20;15.37;;;4.00;77.90;;;;;;5073118;28;20432;-73
2021/01/05 10:50:32;;;;;;;33.37;15.77;;;4.00;78.20;;;;;;5057411;28;20419;-74
2021/01/05 10:52:58;;;;;;;55.60;22.90;;;4.00;78.60;;;;;;5068168;28;20422;-72
2021/01/05 10:55:23;;;;;;;41.13;18.40;;;4.00;79.00;;;;;;5078899;28;20447;-74
2021/01/05 10:57:57;;;;;;;107.43;37.97;;;4.00;78.70;;;;;;5078642;28;20185;-73
2021/01/05 11:00:32;;;;;;;55.93;21.50;;;4.00;78.90;;;;;;5060603;28;20170;-73
2021/01/05 11:03:01;;;;;;;45.27;18.60;;;4.00;79.20;;;;;;5066976;28;20433;-73
2021/01/05 11:05:26;;;;;;;29.47;15.90;;;4.10;79.10;;;;;;5073583;28;20494;-73
2021/01/05 11:07:52;;;;;;;31.93;16.10;;;4.10;79.00;;;;;;5080341;28;20466;-73
2021/01/05 11:10:43;;;;;;;27.90;13.47;;;4.10;78.70;;;;;;5074000;28;20169;-75
2021/01/05 11:13:09;;;;;;;24.97;13.10;;;4.10;78.50;;;;;;5069717;28;20466;-72
2021/01/05 11:15:35;;;;;;;27.23;12.37;;;4.10;78.30;;;;;;5062026;28;20955;-73
2021/01/05 11:18:00;;;;;;;28.80;15.23;;;4.10;78.10;;;;;;5070177;28;20181;-73
2021/01/05 11:20:26;;;;;;;25.83;13.30;;;4.20;78.40;;;;;;5080906;28;20180;-72
2021/01/05 11:22:58;;;;;;;33.83;13.37;;;4.10;78.00;;;;;;5079559;28;20162;-73
2021/01/05 11:25:29;;;;;;;28.03;13.47;;;4.20;78.60;;;;;;5067420;28;20174;-73
2021/01/05 11:27:58;;;;;;;26.43;13.90;;;4.20;78.20;;;;;;5078168;28;20439;-73
2021/01/05 11:30:25;;;;;;;36.40;16.10;;;4.10;78.20;;;;;;5074323;28;20415;-72
2021/01/05 11:33:08;;;;;;;34.63;15.37;;;4.10;78.00;;;;;;5084843;28;20411;-72
2021/01/05 11:35:41;;;;;;;31.03;15.63;;;4.00;78.70;;;;;;5081464;28;20462;-74
2021/01/05 11:38:08;;;;;;;30.03;15.00;;;4.00;79.70;;;;;;5079838;28;20189;-72
2021/01/05 11:40:33;;;;;;;30.63;15.57;;;3.90;79.80;;;;;;5072511;28;20407;-73
2021/01/05 11:42:59;;;;;;;30.27;15.50;;;3.90;80.50;;;;;;5062580;28;20483;-73
2021/01/05 11:45:25;;;;;;;24.00;12.80;;;3.80;81.00;;;;;;5062607;28;20173;-72
2021/01/05 11:47:51;;;;;;;32.10;16.70;;;3.80;81.30;;;;;;5064567;28;20727;-72
2021/01/05 11:50:18;;;;;;;28.27;15.00;;;3.80;81.70;;;;;;5074675;28;20168;-73
2021/01/05 11:52:44;;;;;;;30.67;13.57;;;3.80;82.00;;;;;;5070568;28;20432;-73
2021/01/05 11:55:10;;;;;;;34.50;14.27;;;3.90;82.40;;;;;;5052832;28;20462;-73
2021/01/05 11:57:36;;;;;;;32.07;17.07;;;3.90;82.60;;;;;;5058966;28;20231;-73
2021/01/05 12:00:15;;;;;;;29.80;16.20;;;3.90;82.80;;;;;;5065933;28;20899;-74
2021/01/05 12:02:40;;;;;;;32.53;15.53;;;3.90;82.90;;;;;;5063503;28;20307;-73
2021/01/05 12:05:07;;;;;;;31.80;13.00;;;3.90;82.90;;;;;;5066267;28;20469;-73
2021/01/05 12:07:33;;;;;;;26.43;14.30;;;3.90;82.90;;;;;;5060520;28;20193;-73
2021/01/05 12:09:58;;;;;;;26.60;13.50;;;3.90;82.70;;;;;;5057677;28;20553;-74
2021/01/05 12:12:24;;;;;;;25.70;12.53;;;3.90;82.50;;;;;;5070027;28;20173;-74
2021/01/05 12:14:49;;;;;;;29.00;14.80;;;4.00;82.40;;;;;;5071848;28;20215;-73
2021/01/05 12:17:15;;;;;;;29.47;14.50;;;4.00;82.00;;;;;;5059518;28;20698;-73
2021/01/05 12:19:43;;;;;;;29.23;14.97;;;3.90;82.30;;;;;;5052069;28;20165;-73
2021/01/05 12:22:10;;;;;;;29.00;14.30;;;3.90;82.50;;;;;;5073698;28;20166;-71
2021/01/05 12:24:39;;;;;;;30.33;14.63;;;3.90;82.40;;;;;;5074526;28;20427;-73
2021/01/05 12:27:09;;;;;;;31.83;15.73;;;3.90;82.60;;;;;;5071479;28;20986;-72
2021/01/05 12:29:40;;;;;;;25.40;12.33;;;3.90;82.90;;;;;;5072696;28;20403;-72
2021/01/05 12:32:09;;;;;;;32.67;15.03;;;3.90;82.60;;;;;;5060250;28;20417;-74
2021/01/05 12:34:39;;;;;;;27.50;13.60;;;3.90;82.80;;;;;;5052353;28;20447;-73
2021/01/05 12:37:08;;;;;;;23.87;12.10;;;3.90;82.80;;;;;;5064833;28;20443;-74
2021/01/05 12:39:35;;;;;;;30.10;14.20;;;3.90;82.50;;;;;;5058229;28;20419;-73
2021/01/05 12:42:15;;;;;;;40.77;13.87;;;3.90;82.70;;;;;;5052117;28;20503;-73
2021/01/05 12:44:41;;;;;;;31.10;14.37;;;3.90;82.50;;;;;;5070624;28;20506;-72
2021/01/05 12:47:07;;;;;;;29.70;13.17;;;3.90;82.20;;;;;;5069893;28;20474;-74
2021/01/05 12:49:33;;;;;;;27.97;13.50;;;3.90;82.20;;;;;;5058242;28;20215;-72
2021/01/05 12:52:04;;;;;;;22.67;12.63;;;3.90;82.20;;;;;;5052160;28;20404;-73
2021/01/05 12:54:29;;;;;;;28.83;12.60;;;3.90;82.10;;;;;;5064483;28;20707;-75
2021/01/05 12:56:55;;;;;;;31.63;12.93;;;4.00;82.30;;;;;;5073831;28;20430;-74
2021/01/05 12:59:22;;;;;;;28.30;13.17;;;4.00;82.40;;;;;;5057473;28;20165;-72
2021/01/05 13:01:57;;;;;;;34.73;14.47;;;4.00;82.10;;;;;;5053060;28;20182;-74
2021/01/05 13:04:23;;;;;;;26.80;12.53;;;3.90;81.90;;;;;;5072463;28;20422;-75
2021/01/05 13:06:49;;;;;;;29.93;12.87;;;3.90;82.10;;;;;;5082459;28;20423;-73